sensor_id;sensor_type;location;lat;lon;timestamp;temperature;humidity
9800;DHT22;4939;52.00085300;4.17406100;2023-08-08T00:01:54;18.30;99.90
9800;DHT22;4939;52.00085300;4.17406100;2023-08-08T00:04:19;18.30;99.90
9800;DHT22;4939;52.00085300;4.17406100;2023-08-08T00:06:46;18.30;99.90
9800;DHT22;4939;52.00085300;4.17406100;2023-08-08T00:09:11;18.30;99.90
9800;DHT22;4939;52.00085300;4.17406100;2023-08-08T00:11:37;18.30;99.90
9800;DHT22;4939;52.00085300;4.17406100;2023-08-08T00:14:02;18.30;99.90
9800;DHT22;4939;52.00085300;4.17406100;2023-08-08T00:16:28;18.30;99.90
9800;DHT22;4939;52.00085300;4.17406100;2023-08-08T00:18:54;18.20;99.90
9800;DHT22;4939;52.00085300;4.17406100;2023-08-08T00:21:20;18.30;99.90
9800;DHT22;4939;52.00085300;4.17406100;2023-08-08T00:23:45;18.10;99.90
9800;DHT22;4939;52.00085300;4.17406100;2023-08-08T00:26:11;18.10;99.90
9800;DHT22;4939;52.00085300;4.17406100;2023-08-08T00:28:37;18.00;99.90
9800;DHT22;4939;52.00085300;4.17406100;2023-08-08T00:31:02;18.00;99.90
9800;DHT22;4939;52.00085300;4.17406100;2023-08-08T00:33:28;18.20;99.90
9800;DHT22;4939;52.00085300;4.17406100;2023-08-08T00:35:54;18.00;99.90
9800;DHT22;4939;52.00085300;4.17406100;2023-08-08T00:38:19;17.90;99.90
9800;DHT22;4939;52.00085300;4.17406100;2023-08-08T00:40:45;18.00;99.90
9800;DHT22;4939;52.00085300;4.17406100;2023-08-08T00:43:11;17.80;99.90
9800;DHT22;4939;52.00085300;4.17406100;2023-08-08T00:45:37;17.80;99.90
9800;DHT22;4939;52.00085300;4.17406100;2023-08-08T00:48:03;17.70;99.90
9800;DHT22;4939;52.00085300;4.17406100;2023-08-08T00:50:29;17.70;99.90
9800;DHT22;4939;52.00085300;4.17406100;2023-08-08T00:52:55;17.80;99.90
9800;DHT22;4939;52.00085300;4.17406100;2023-08-08T00:55:21;17.70;99.90
9800;DHT22;4939;52.00085300;4.17406100;2023-08-08T00:57:47;17.70;99.90
9800;DHT22;4939;52.00085300;4.17406100;2023-08-08T01:00:13;17.80;99.90
9800;DHT22;4939;52.00085300;4.17406100;2023-08-08T01:02:39;17.80;99.90
9800;DHT22;4939;52.00085300;4.17406100;2023-08-08T01:05:05;17.80;99.90
9800;DHT22;4939;52.00085300;4.17406100;2023-08-08T01:10:22;17.80;99.90
9800;DHT22;4939;52.00085300;4.17406100;2023-08-08T01:12:53;17.80;99.90
9800;DHT22;4939;52.00085300;4.17406100;2023-08-08T01:15:21;17.80;99.90
9800;DHT22;4939;52.00085300;4.17406100;2023-08-08T01:17:47;17.80;99.90
9800;DHT22;4939;52.00085300;4.17406100;2023-08-08T01:20:14;17.80;99.90
9800;DHT22;4939;52.00085300;4.17406100;2023-08-08T01:25:29;17.70;99.90
9800;DHT22;4939;52.00085300;4.17406100;2023-08-08T01:27:54;17.60;99.90
9800;DHT22;4939;52.00085300;4.17406100;2023-08-08T01:30:20;17.60;99.90
9800;DHT22;4939;52.00085300;4.17406100;2023-08-08T01:32:46;17.60;99.90
9800;DHT22;4939;52.00085300;4.17406100;2023-08-08T01:35:11;17.50;99.90
9800;DHT22;4939;52.00085300;4.17406100;2023-08-08T01:37:50;17.40;99.90
9800;DHT22;4939;52.00085300;4.17406100;2023-08-08T01:40:18;17.40;99.90
9800;DHT22;4939;52.00085300;4.17406100;2023-08-08T01:42:47;17.40;99.90
9800;DHT22;4939;52.00085300;4.17406100;2023-08-08T01:45:13;17.40;99.90
9800;DHT22;4939;52.00085300;4.17406100;2023-08-08T01:47:40;17.40;99.90
9800;DHT22;4939;52.00085300;4.17406100;2023-08-08T01:50:06;17.40;99.90
9800;DHT22;4939;52.00085300;4.17406100;2023-08-08T01:52:31;17.40;99.90
9800;DHT22;4939;52.00085300;4.17406100;2023-08-08T01:54:57;17.40;99.90
9800;DHT22;4939;52.00085300;4.17406100;2023-08-08T01:57:22;17.30;99.90
9800;DHT22;4939;52.00085300;4.17406100;2023-08-08T01:59:48;17.30;99.90
9800;DHT22;4939;52.00085300;4.17406100;2023-08-08T02:02:15;17.30;99.90
9800;DHT22;4939;52.00085300;4.17406100;2023-08-08T02:04:42;17.40;99.90
9800;DHT22;4939;52.00085300;4.17406100;2023-08-08T02:07:08;17.40;99.90
9800;DHT22;4939;52.00085300;4.17406100;2023-08-08T02:09:33;17.40;99.90
9800;DHT22;4939;52.00085300;4.17406100;2023-08-08T02:11:59;17.40;99.90
9800;DHT22;4939;52.00085300;4.17406100;2023-08-08T02:14:24;17.40;99.90
9800;DHT22;4939;52.00085300;4.17406100;2023-08-08T02:16:50;17.40;99.90
9800;DHT22;4939;52.00085300;4.17406100;2023-08-08T02:19:16;17.40;99.90
9800;DHT22;4939;52.00085300;4.17406100;2023-08-08T02:21:41;17.40;99.90
9800;DHT22;4939;52.00085300;4.17406100;2023-08-08T02:24:07;17.40;99.90
9800;DHT22;4939;52.00085300;4.17406100;2023-08-08T02:26:32;17.40;99.90
9800;DHT22;4939;52.00085300;4.17406100;2023-08-08T02:28:58;17.30;99.90
9800;DHT22;4939;52.00085300;4.17406100;2023-08-08T02:31:24;17.30;99.90
9800;DHT22;4939;52.00085300;4.17406100;2023-08-08T02:33:50;17.30;99.90
9800;DHT22;4939;52.00085300;4.17406100;2023-08-08T02:36:17;17.10;99.90
9800;DHT22;4939;52.00085300;4.17406100;2023-08-08T02:38:42;17.20;99.90
9800;DHT22;4939;52.00085300;4.17406100;2023-08-08T02:41:08;17.10;99.90
9800;DHT22;4939;52.00085300;4.17406100;2023-08-08T02:43:34;17.10;99.90
9800;DHT22;4939;52.00085300;4.17406100;2023-08-08T02:45:59;17.10;99.90
9800;DHT22;4939;52.00085300;4.17406100;2023-08-08T02:48:25;17.10;99.90
9800;DHT22;4939;52.00085300;4.17406100;2023-08-08T02:50:50;17.10;99.90
9800;DHT22;4939;52.00085300;4.17406100;2023-08-08T02:53:16;17.10;99.90
9800;DHT22;4939;52.00085300;4.17406100;2023-08-08T02:55:41;17.10;99.90
9800;DHT22;4939;52.00085300;4.17406100;2023-08-08T02:58:07;17.10;99.90
9800;DHT22;4939;52.00085300;4.17406100;2023-08-08T03:00:33;17.20;99.90
9800;DHT22;4939;52.00085300;4.17406100;2023-08-08T03:02:58;17.20;99.90
9800;DHT22;4939;52.00085300;4.17406100;2023-08-08T03:05:24;17.20;99.90
9800;DHT22;4939;52.00085300;4.17406100;2023-08-08T03:07:49;17.20;99.90
9800;DHT22;4939;52.00085300;4.17406100;2023-08-08T03:10:15;17.20;99.90
9800;DHT22;4939;52.00085300;4.17406100;2023-08-08T03:12:40;17.20;99.90
9800;DHT22;4939;52.00085300;4.17406100;2023-08-08T03:15:07;17.20;99.90
9800;DHT22;4939;52.00085300;4.17406100;2023-08-08T03:20:00;17.10;99.90
9800;DHT22;4939;52.00085300;4.17406100;2023-08-08T03:22:26;17.10;99.90
9800;DHT22;4939;52.00085300;4.17406100;2023-08-08T03:24:51;17.00;99.90
9800;DHT22;4939;52.00085300;4.17406100;2023-08-08T03:27:17;17.00;99.90
9800;DHT22;4939;52.00085300;4.17406100;2023-08-08T03:29:42;17.00;99.90
9800;DHT22;4939;52.00085300;4.17406100;2023-08-08T03:32:08;17.00;99.90
9800;DHT22;4939;52.00085300;4.17406100;2023-08-08T03:34:33;17.00;99.90
9800;DHT22;4939;52.00085300;4.17406100;2023-08-08T03:36:59;17.00;99.90
9800;DHT22;4939;52.00085300;4.17406100;2023-08-08T03:39:25;16.90;99.90
9800;DHT22;4939;52.00085300;4.17406100;2023-08-08T03:41:50;17.00;99.90
9800;DHT22;4939;52.00085300;4.17406100;2023-08-08T03:44:16;17.00;99.90
9800;DHT22;4939;52.00085300;4.17406100;2023-08-08T03:46:41;16.90;99.90
9800;DHT22;4939;52.00085300;4.17406100;2023-08-08T03:49:07;16.80;99.90
9800;DHT22;4939;52.00085300;4.17406100;2023-08-08T03:51:33;16.80;99.90
9800;DHT22;4939;52.00085300;4.17406100;2023-08-08T03:53:58;16.80;99.90
9800;DHT22;4939;52.00085300;4.17406100;2023-08-08T03:56:24;16.70;99.90
9800;DHT22;4939;52.00085300;4.17406100;2023-08-08T03:58:50;16.70;99.90
9800;DHT22;4939;52.00085300;4.17406100;2023-08-08T04:01:15;16.60;99.90
9800;DHT22;4939;52.00085300;4.17406100;2023-08-08T04:03:41;16.70;99.90
9800;DHT22;4939;52.00085300;4.17406100;2023-08-08T04:06:07;16.60;99.90
9800;DHT22;4939;52.00085300;4.17406100;2023-08-08T04:08:33;16.60;99.90
9800;DHT22;4939;52.00085300;4.17406100;2023-08-08T04:10:59;16.60;99.90
9800;DHT22;4939;52.00085300;4.17406100;2023-08-08T04:13:24;16.60;99.90
9800;DHT22;4939;52.00085300;4.17406100;2023-08-08T04:15:50;16.60;99.90
9800;DHT22;4939;52.00085300;4.17406100;2023-08-08T04:18:17;16.50;99.90
9800;DHT22;4939;52.00085300;4.17406100;2023-08-08T04:20:44;16.50;99.90
9800;DHT22;4939;52.00085300;4.17406100;2023-08-08T04:23:10;16.50;99.90
9800;DHT22;4939;52.00085300;4.17406100;2023-08-08T04:25:36;16.50;99.90
9800;DHT22;4939;52.00085300;4.17406100;2023-08-08T04:28:01;16.50;99.90
9800;DHT22;4939;52.00085300;4.17406100;2023-08-08T04:30:27;16.40;99.90
9800;DHT22;4939;52.00085300;4.17406100;2023-08-08T04:32:53;16.50;99.90
9800;DHT22;4939;52.00085300;4.17406100;2023-08-08T04:35:18;16.50;99.90
9800;DHT22;4939;52.00085300;4.17406100;2023-08-08T04:37:44;16.50;99.90
9800;DHT22;4939;52.00085300;4.17406100;2023-08-08T04:40:10;16.50;99.90
9800;DHT22;4939;52.00085300;4.17406100;2023-08-08T04:42:35;16.50;99.90
9800;DHT22;4939;52.00085300;4.17406100;2023-08-08T04:45:01;16.50;99.90
9800;DHT22;4939;52.00085300;4.17406100;2023-08-08T04:47:26;16.50;99.90
9800;DHT22;4939;52.00085300;4.17406100;2023-08-08T04:49:52;16.50;99.90
9800;DHT22;4939;52.00085300;4.17406100;2023-08-08T04:52:17;16.50;99.90
9800;DHT22;4939;52.00085300;4.17406100;2023-08-08T04:54:43;16.40;99.90
9800;DHT22;4939;52.00085300;4.17406100;2023-08-08T04:57:09;16.50;99.90
9800;DHT22;4939;52.00085300;4.17406100;2023-08-08T04:59:35;16.50;99.90
9800;DHT22;4939;52.00085300;4.17406100;2023-08-08T05:02:01;16.50;99.90
9800;DHT22;4939;52.00085300;4.17406100;2023-08-08T05:04:26;16.50;99.90
9800;DHT22;4939;52.00085300;4.17406100;2023-08-08T05:06:52;16.50;99.90
9800;DHT22;4939;52.00085300;4.17406100;2023-08-08T05:09:17;16.50;99.90
9800;DHT22;4939;52.00085300;4.17406100;2023-08-08T05:11:43;16.50;99.90
9800;DHT22;4939;52.00085300;4.17406100;2023-08-08T05:14:08;16.40;99.90
9800;DHT22;4939;52.00085300;4.17406100;2023-08-08T05:16:34;16.40;99.90
9800;DHT22;4939;52.00085300;4.17406100;2023-08-08T05:19:00;16.40;99.90
9800;DHT22;4939;52.00085300;4.17406100;2023-08-08T05:21:25;16.40;99.90
9800;DHT22;4939;52.00085300;4.17406100;2023-08-08T05:23:51;16.30;99.90
9800;DHT22;4939;52.00085300;4.17406100;2023-08-08T05:26:17;16.40;99.90
9800;DHT22;4939;52.00085300;4.17406100;2023-08-08T05:28:42;16.40;99.90
9800;DHT22;4939;52.00085300;4.17406100;2023-08-08T05:33:35;16.40;99.90
9800;DHT22;4939;52.00085300;4.17406100;2023-08-08T05:36:01;16.40;99.90
9800;DHT22;4939;52.00085300;4.17406100;2023-08-08T05:38:26;16.60;99.90
9800;DHT22;4939;52.00085300;4.17406100;2023-08-08T05:40:52;16.40;99.90
9800;DHT22;4939;52.00085300;4.17406100;2023-08-08T05:43:17;16.40;99.90
9800;DHT22;4939;52.00085300;4.17406100;2023-08-08T05:45:44;16.50;99.90
9800;DHT22;4939;52.00085300;4.17406100;2023-08-08T05:48:10;16.50;99.90
9800;DHT22;4939;52.00085300;4.17406100;2023-08-08T05:50:38;16.50;99.90
9800;DHT22;4939;52.00085300;4.17406100;2023-08-08T05:53:05;16.50;99.90
9800;DHT22;4939;52.00085300;4.17406100;2023-08-08T05:55:30;16.60;99.90
9800;DHT22;4939;52.00085300;4.17406100;2023-08-08T05:57:56;16.60;99.90
9800;DHT22;4939;52.00085300;4.17406100;2023-08-08T06:00:21;16.70;99.90
9800;DHT22;4939;52.00085300;4.17406100;2023-08-08T06:02:47;16.70;99.90
9800;DHT22;4939;52.00085300;4.17406100;2023-08-08T06:05:12;16.60;99.90
9800;DHT22;4939;52.00085300;4.17406100;2023-08-08T06:07:38;16.70;99.90
9800;DHT22;4939;52.00085300;4.17406100;2023-08-08T06:10:05;16.70;99.90
9800;DHT22;4939;52.00085300;4.17406100;2023-08-08T06:12:31;16.70;99.90
9800;DHT22;4939;52.00085300;4.17406100;2023-08-08T06:14:57;16.80;99.90
9800;DHT22;4939;52.00085300;4.17406100;2023-08-08T06:17:22;16.80;99.90
9800;DHT22;4939;52.00085300;4.17406100;2023-08-08T06:19:49;17.10;99.90
9800;DHT22;4939;52.00085300;4.17406100;2023-08-08T06:22:16;17.20;99.90
9800;DHT22;4939;52.00085300;4.17406100;2023-08-08T06:24:41;17.20;99.90
9800;DHT22;4939;52.00085300;4.17406100;2023-08-08T06:27:07;17.20;99.90
9800;DHT22;4939;52.00085300;4.17406100;2023-08-08T06:29:32;17.20;99.90
9800;DHT22;4939;52.00085300;4.17406100;2023-08-08T06:31:58;17.20;99.90
9800;DHT22;4939;52.00085300;4.17406100;2023-08-08T06:34:23;17.10;99.90
9800;DHT22;4939;52.00085300;4.17406100;2023-08-08T06:36:49;17.10;99.90
9800;DHT22;4939;52.00085300;4.17406100;2023-08-08T06:39:15;17.10;99.90
9800;DHT22;4939;52.00085300;4.17406100;2023-08-08T06:41:41;17.20;99.90
9800;DHT22;4939;52.00085300;4.17406100;2023-08-08T06:44:07;17.20;99.90
9800;DHT22;4939;52.00085300;4.17406100;2023-08-08T06:46:33;17.30;99.90
9800;DHT22;4939;52.00085300;4.17406100;2023-08-08T06:48:58;17.30;99.90
9800;DHT22;4939;52.00085300;4.17406100;2023-08-08T06:51:25;18.10;99.90
9800;DHT22;4939;52.00085300;4.17406100;2023-08-08T06:53:51;17.30;99.90
9800;DHT22;4939;52.00085300;4.17406100;2023-08-08T06:56:17;17.20;99.90
9800;DHT22;4939;52.00085300;4.17406100;2023-08-08T06:58:43;17.20;99.90
9800;DHT22;4939;52.00085300;4.17406100;2023-08-08T07:01:09;17.30;99.90
9800;DHT22;4939;52.00085300;4.17406100;2023-08-08T07:03:35;17.30;99.90
9800;DHT22;4939;52.00085300;4.17406100;2023-08-08T07:06:02;17.40;99.90
9800;DHT22;4939;52.00085300;4.17406100;2023-08-08T07:08:27;17.40;99.90
9800;DHT22;4939;52.00085300;4.17406100;2023-08-08T07:10:56;17.60;99.90
9800;DHT22;4939;52.00085300;4.17406100;2023-08-08T07:13:22;17.60;99.90
9800;DHT22;4939;52.00085300;4.17406100;2023-08-08T07:15:47;17.70;99.90
9800;DHT22;4939;52.00085300;4.17406100;2023-08-08T07:18:13;17.70;99.90
9800;DHT22;4939;52.00085300;4.17406100;2023-08-08T07:20:38;17.80;99.90
9800;DHT22;4939;52.00085300;4.17406100;2023-08-08T07:23:04;17.80;99.90
9800;DHT22;4939;52.00085300;4.17406100;2023-08-08T07:25:30;17.90;99.90
9800;DHT22;4939;52.00085300;4.17406100;2023-08-08T07:27:56;17.80;99.90
9800;DHT22;4939;52.00085300;4.17406100;2023-08-08T07:30:21;17.80;99.90
9800;DHT22;4939;52.00085300;4.17406100;2023-08-08T07:32:47;17.80;99.90
9800;DHT22;4939;52.00085300;4.17406100;2023-08-08T07:35:13;17.70;99.90
9800;DHT22;4939;52.00085300;4.17406100;2023-08-08T07:37:40;17.80;99.90
9800;DHT22;4939;52.00085300;4.17406100;2023-08-08T07:40:16;17.80;99.90
9800;DHT22;4939;52.00085300;4.17406100;2023-08-08T07:42:44;17.80;99.90
9800;DHT22;4939;52.00085300;4.17406100;2023-08-08T07:50:01;18.20;99.90
9800;DHT22;4939;52.00085300;4.17406100;2023-08-08T07:52:27;18.20;99.90
9800;DHT22;4939;52.00085300;4.17406100;2023-08-08T07:54:53;18.20;99.90
9800;DHT22;4939;52.00085300;4.17406100;2023-08-08T07:57:19;18.20;99.90
9800;DHT22;4939;52.00085300;4.17406100;2023-08-08T08:02:10;18.30;99.90
9800;DHT22;4939;52.00085300;4.17406100;2023-08-08T08:04:36;18.30;99.90
9800;DHT22;4939;52.00085300;4.17406100;2023-08-08T08:07:02;18.30;99.90
9800;DHT22;4939;52.00085300;4.17406100;2023-08-08T08:09:28;18.30;99.90
9800;DHT22;4939;52.00085300;4.17406100;2023-08-08T08:11:54;18.40;99.90
9800;DHT22;4939;52.00085300;4.17406100;2023-08-08T08:14:20;18.40;99.90
9800;DHT22;4939;52.00085300;4.17406100;2023-08-08T08:16:46;18.40;99.90
9800;DHT22;4939;52.00085300;4.17406100;2023-08-08T08:21:38;18.30;99.90
9800;DHT22;4939;52.00085300;4.17406100;2023-08-08T08:24:04;18.30;99.90
9800;DHT22;4939;52.00085300;4.17406100;2023-08-08T08:28:57;18.20;99.90
9800;DHT22;4939;52.00085300;4.17406100;2023-08-08T08:31:23;18.40;99.90
9800;DHT22;4939;52.00085300;4.17406100;2023-08-08T08:33:49;18.40;99.90
9800;DHT22;4939;52.00085300;4.17406100;2023-08-08T08:36:14;18.30;99.90
9800;DHT22;4939;52.00085300;4.17406100;2023-08-08T08:38:40;18.30;99.90
9800;DHT22;4939;52.00085300;4.17406100;2023-08-08T08:41:05;18.30;99.90
9800;DHT22;4939;52.00085300;4.17406100;2023-08-08T08:46:00;18.40;99.90
9800;DHT22;4939;52.00085300;4.17406100;2023-08-08T08:48:27;18.40;99.90
9800;DHT22;4939;52.00085300;4.17406100;2023-08-08T08:50:52;18.70;99.90
9800;DHT22;4939;52.00085300;4.17406100;2023-08-08T08:53:18;18.60;99.90
9800;DHT22;4939;52.00085300;4.17406100;2023-08-08T08:55:44;18.60;99.90
9800;DHT22;4939;52.00085300;4.17406100;2023-08-08T08:58:14;18.70;99.90
9800;DHT22;4939;52.00085300;4.17406100;2023-08-08T09:00:40;18.60;99.90
9800;DHT22;4939;52.00085300;4.17406100;2023-08-08T09:03:07;18.60;99.90
9800;DHT22;4939;52.00085300;4.17406100;2023-08-08T09:05:33;18.60;99.90
9800;DHT22;4939;52.00085300;4.17406100;2023-08-08T09:07:59;18.60;99.90
9800;DHT22;4939;52.00085300;4.17406100;2023-08-08T09:10:26;18.50;99.90
9800;DHT22;4939;52.00085300;4.17406100;2023-08-08T09:12:52;18.70;99.90
9800;DHT22;4939;52.00085300;4.17406100;2023-08-08T09:15:18;18.70;99.90
9800;DHT22;4939;52.00085300;4.17406100;2023-08-08T09:17:44;18.70;99.90
9800;DHT22;4939;52.00085300;4.17406100;2023-08-08T09:20:11;18.80;99.90
9800;DHT22;4939;52.00085300;4.17406100;2023-08-08T09:22:37;19.00;99.90
9800;DHT22;4939;52.00085300;4.17406100;2023-08-08T09:25:04;18.90;99.90
9800;DHT22;4939;52.00085300;4.17406100;2023-08-08T09:27:30;18.70;99.90
9800;DHT22;4939;52.00085300;4.17406100;2023-08-08T09:29:56;18.90;99.90
9800;DHT22;4939;52.00085300;4.17406100;2023-08-08T09:32:22;19.10;99.90
9800;DHT22;4939;52.00085300;4.17406100;2023-08-08T09:34:48;18.90;99.90
9800;DHT22;4939;52.00085300;4.17406100;2023-08-08T09:37:15;18.80;99.90
9800;DHT22;4939;52.00085300;4.17406100;2023-08-08T09:39:40;18.90;99.90
9800;DHT22;4939;52.00085300;4.17406100;2023-08-08T09:42:08;18.70;99.90
9800;DHT22;4939;52.00085300;4.17406100;2023-08-08T09:44:33;18.90;99.90
9800;DHT22;4939;52.00085300;4.17406100;2023-08-08T09:47:00;18.90;99.90
9800;DHT22;4939;52.00085300;4.17406100;2023-08-08T09:49:27;18.90;99.90
9800;DHT22;4939;52.00085300;4.17406100;2023-08-08T09:51:53;18.90;99.90
9800;DHT22;4939;52.00085300;4.17406100;2023-08-08T09:54:20;19.30;99.90
9800;DHT22;4939;52.00085300;4.17406100;2023-08-08T09:56:48;19.10;99.90
9800;DHT22;4939;52.00085300;4.17406100;2023-08-08T09:59:14;19.20;99.90
9800;DHT22;4939;52.00085300;4.17406100;2023-08-08T10:01:43;19.00;99.90
9800;DHT22;4939;52.00085300;4.17406100;2023-08-08T10:04:12;19.40;99.90
9800;DHT22;4939;52.00085300;4.17406100;2023-08-08T10:06:38;19.40;99.90
9800;DHT22;4939;52.00085300;4.17406100;2023-08-08T10:09:04;19.40;99.90
9800;DHT22;4939;52.00085300;4.17406100;2023-08-08T10:11:31;19.30;99.90
9800;DHT22;4939;52.00085300;4.17406100;2023-08-08T10:14:00;19.10;99.90
9800;DHT22;4939;52.00085300;4.17406100;2023-08-08T10:16:26;19.20;99.90
9800;DHT22;4939;52.00085300;4.17406100;2023-08-08T10:18:57;19.00;99.90
9800;DHT22;4939;52.00085300;4.17406100;2023-08-08T10:21:24;19.00;99.90
9800;DHT22;4939;52.00085300;4.17406100;2023-08-08T10:26:29;19.20;99.90
9800;DHT22;4939;52.00085300;4.17406100;2023-08-08T10:28:56;19.20;99.90
9800;DHT22;4939;52.00085300;4.17406100;2023-08-08T10:33:48;19.30;99.90
9800;DHT22;4939;52.00085300;4.17406100;2023-08-08T10:36:15;19.20;99.90
9800;DHT22;4939;52.00085300;4.17406100;2023-08-08T10:38:47;19.30;99.90
9800;DHT22;4939;52.00085300;4.17406100;2023-08-08T10:41:18;19.40;99.90
9800;DHT22;4939;52.00085300;4.17406100;2023-08-08T10:43:52;19.40;99.90
9800;DHT22;4939;52.00085300;4.17406100;2023-08-08T10:46:25;20.20;99.90
9800;DHT22;4939;52.00085300;4.17406100;2023-08-08T10:48:52;20.30;99.90
9800;DHT22;4939;52.00085300;4.17406100;2023-08-08T10:51:18;19.60;99.90
9800;DHT22;4939;52.00085300;4.17406100;2023-08-08T10:53:45;19.70;99.90
9800;DHT22;4939;52.00085300;4.17406100;2023-08-08T10:56:13;19.70;99.90
9800;DHT22;4939;52.00085300;4.17406100;2023-08-08T10:58:47;20.30;99.90
9800;DHT22;4939;52.00085300;4.17406100;2023-08-08T11:01:12;20.40;99.90
9800;DHT22;4939;52.00085300;4.17406100;2023-08-08T11:03:42;20.30;99.90
9800;DHT22;4939;52.00085300;4.17406100;2023-08-08T11:06:09;20.30;99.90
9800;DHT22;4939;52.00085300;4.17406100;2023-08-08T11:08:36;20.10;99.90
9800;DHT22;4939;52.00085300;4.17406100;2023-08-08T11:11:04;20.00;99.90
9800;DHT22;4939;52.00085300;4.17406100;2023-08-08T11:13:30;19.90;99.90
9800;DHT22;4939;52.00085300;4.17406100;2023-08-08T11:15:56;20.20;99.90
9800;DHT22;4939;52.00085300;4.17406100;2023-08-08T11:18:22;19.90;99.90
9800;DHT22;4939;52.00085300;4.17406100;2023-08-08T11:20:49;19.80;99.90
9800;DHT22;4939;52.00085300;4.17406100;2023-08-08T11:23:15;19.90;99.90
9800;DHT22;4939;52.00085300;4.17406100;2023-08-08T11:25:42;19.80;99.90
9800;DHT22;4939;52.00085300;4.17406100;2023-08-08T11:28:08;19.50;99.90
9800;DHT22;4939;52.00085300;4.17406100;2023-08-08T11:30:37;19.70;99.90
9800;DHT22;4939;52.00085300;4.17406100;2023-08-08T11:33:03;19.90;99.90
9800;DHT22;4939;52.00085300;4.17406100;2023-08-08T11:35:29;19.80;99.90
9800;DHT22;4939;52.00085300;4.17406100;2023-08-08T11:37:57;20.20;99.90
9800;DHT22;4939;52.00085300;4.17406100;2023-08-08T11:40:28;20.40;99.90
9800;DHT22;4939;52.00085300;4.17406100;2023-08-08T11:42:56;20.60;99.90
9800;DHT22;4939;52.00085300;4.17406100;2023-08-08T11:45:22;20.80;99.90
9800;DHT22;4939;52.00085300;4.17406100;2023-08-08T11:47:53;20.50;99.90
9800;DHT22;4939;52.00085300;4.17406100;2023-08-08T11:50:19;20.30;99.90
9800;DHT22;4939;52.00085300;4.17406100;2023-08-08T11:52:46;20.40;99.90
9800;DHT22;4939;52.00085300;4.17406100;2023-08-08T11:55:12;20.50;99.90
9800;DHT22;4939;52.00085300;4.17406100;2023-08-08T11:57:39;20.40;99.90
9800;DHT22;4939;52.00085300;4.17406100;2023-08-08T12:00:07;20.30;99.90
9800;DHT22;4939;52.00085300;4.17406100;2023-08-08T12:02:34;20.00;99.90
9800;DHT22;4939;52.00085300;4.17406100;2023-08-08T12:05:07;20.00;99.90
9800;DHT22;4939;52.00085300;4.17406100;2023-08-08T12:07:35;19.80;99.90
9800;DHT22;4939;52.00085300;4.17406100;2023-08-08T12:10:03;20.00;99.90
9800;DHT22;4939;52.00085300;4.17406100;2023-08-08T12:12:28;20.20;99.90
9800;DHT22;4939;52.00085300;4.17406100;2023-08-08T12:14:56;19.90;99.90
9800;DHT22;4939;52.00085300;4.17406100;2023-08-08T12:17:22;19.80;99.90
9800;DHT22;4939;52.00085300;4.17406100;2023-08-08T12:19:48;20.20;99.90
9800;DHT22;4939;52.00085300;4.17406100;2023-08-08T12:22:14;20.20;99.90
9800;DHT22;4939;52.00085300;4.17406100;2023-08-08T12:24:40;20.20;99.90
9800;DHT22;4939;52.00085300;4.17406100;2023-08-08T12:27:06;20.00;99.90
9800;DHT22;4939;52.00085300;4.17406100;2023-08-08T12:29:31;20.00;99.90
9800;DHT22;4939;52.00085300;4.17406100;2023-08-08T12:34:23;19.50;99.90
9800;DHT22;4939;52.00085300;4.17406100;2023-08-08T12:36:48;19.50;99.90
9800;DHT22;4939;52.00085300;4.17406100;2023-08-08T12:39:15;19.70;99.90
9800;DHT22;4939;52.00085300;4.17406100;2023-08-08T12:41:40;20.30;99.90
9800;DHT22;4939;52.00085300;4.17406100;2023-08-08T12:44:06;20.30;99.90
9800;DHT22;4939;52.00085300;4.17406100;2023-08-08T12:46:33;20.50;99.90
9800;DHT22;4939;52.00085300;4.17406100;2023-08-08T12:49:00;19.90;99.90
9800;DHT22;4939;52.00085300;4.17406100;2023-08-08T12:51:25;19.70;99.90
9800;DHT22;4939;52.00085300;4.17406100;2023-08-08T12:53:51;19.70;99.90
9800;DHT22;4939;52.00085300;4.17406100;2023-08-08T12:56:17;19.60;99.90
9800;DHT22;4939;52.00085300;4.17406100;2023-08-08T12:58:43;19.40;99.90
9800;DHT22;4939;52.00085300;4.17406100;2023-08-08T13:01:09;19.50;99.90
9800;DHT22;4939;52.00085300;4.17406100;2023-08-08T13:03:34;19.50;99.90
9800;DHT22;4939;52.00085300;4.17406100;2023-08-08T13:08:26;19.40;99.90
9800;DHT22;4939;52.00085300;4.17406100;2023-08-08T13:10:52;19.80;99.90
9800;DHT22;4939;52.00085300;4.17406100;2023-08-08T13:13:19;19.80;99.90
9800;DHT22;4939;52.00085300;4.17406100;2023-08-08T13:15:46;19.80;99.90
9800;DHT22;4939;52.00085300;4.17406100;2023-08-08T13:18:12;19.80;99.90
9800;DHT22;4939;52.00085300;4.17406100;2023-08-08T13:20:38;19.90;99.90
9800;DHT22;4939;52.00085300;4.17406100;2023-08-08T13:23:03;19.70;99.90
9800;DHT22;4939;52.00085300;4.17406100;2023-08-08T13:25:29;19.80;99.90
9800;DHT22;4939;52.00085300;4.17406100;2023-08-08T13:27:56;20.20;99.90
9800;DHT22;4939;52.00085300;4.17406100;2023-08-08T13:30:22;20.50;99.90
9800;DHT22;4939;52.00085300;4.17406100;2023-08-08T13:32:48;20.50;99.90
9800;DHT22;4939;52.00085300;4.17406100;2023-08-08T13:35:14;20.00;99.90
9800;DHT22;4939;52.00085300;4.17406100;2023-08-08T13:37:39;20.00;99.90
9800;DHT22;4939;52.00085300;4.17406100;2023-08-08T13:40:06;19.90;99.90
9800;DHT22;4939;52.00085300;4.17406100;2023-08-08T13:42:31;19.90;99.90
9800;DHT22;4939;52.00085300;4.17406100;2023-08-08T13:44:57;20.80;99.90
9800;DHT22;4939;52.00085300;4.17406100;2023-08-08T13:47:22;20.80;99.90
9800;DHT22;4939;52.00085300;4.17406100;2023-08-08T13:49:48;21.50;99.90
9800;DHT22;4939;52.00085300;4.17406100;2023-08-08T13:52:14;21.50;99.90
9800;DHT22;4939;52.00085300;4.17406100;2023-08-08T13:54:39;21.50;99.90
9800;DHT22;4939;52.00085300;4.17406100;2023-08-08T13:57:05;20.90;99.90
9800;DHT22;4939;52.00085300;4.17406100;2023-08-08T14:01:56;20.60;99.90
9800;DHT22;4939;52.00085300;4.17406100;2023-08-08T14:04:22;21.00;99.90
9800;DHT22;4939;52.00085300;4.17406100;2023-08-08T14:09:13;21.20;99.90
9800;DHT22;4939;52.00085300;4.17406100;2023-08-08T14:11:39;21.10;99.90
9800;DHT22;4939;52.00085300;4.17406100;2023-08-08T14:14:04;21.10;99.90
9800;DHT22;4939;52.00085300;4.17406100;2023-08-08T14:16:30;21.30;99.90
9800;DHT22;4939;52.00085300;4.17406100;2023-08-08T14:18:55;21.10;99.90
9800;DHT22;4939;52.00085300;4.17406100;2023-08-08T14:21:21;21.20;99.90